createdAt,value
2016-08-27T00:00:45.095Z,24.34
2016-08-27T00:01:45.050Z,24.42
2016-08-27T00:02:44.991Z,24.47
2016-08-27T00:03:44.752Z,24.44
2016-08-27T00:04:44.704Z,24.32
2016-08-27T00:05:44.662Z,24.29
2016-08-27T00:06:44.622Z,24.24
2016-08-27T00:07:44.763Z,24.24
2016-08-27T00:08:44.521Z,24.26
2016-08-27T00:09:44.903Z,24.27
2016-08-27T00:10:44.443Z,24.27
2016-08-27T00:11:44.404Z,24.31
2016-08-27T00:12:44.362Z,24.31
2016-08-27T00:13:44.313Z,24.24
2016-08-27T00:14:44.305Z,24.23
2016-08-27T00:15:44.234Z,24.23
2016-08-27T00:16:44.274Z,24.31
2016-08-27T00:17:44.355Z,24.34
2016-08-27T00:18:44.187Z,24.2
2016-08-27T00:19:43.389Z,24.19
2016-08-27T00:20:44.025Z,24.24
2016-08-27T00:21:43.977Z,24.19
2016-08-27T00:22:43.957Z,24.23
2016-08-27T00:23:44.492Z,24.34
2016-08-27T00:24:44.067Z,24.26
2016-08-27T00:25:43.817Z,24.34
2016-08-27T00:26:43.778Z,24.31
2016-08-27T00:27:43.726Z,24.29
2016-08-27T00:28:43.682Z,24.23
2016-08-27T00:29:43.661Z,24.31
2016-08-27T00:30:43.606Z,24.32
2016-08-27T00:31:42.879Z,24.24
2016-08-27T00:32:43.516Z,24.19
2016-08-27T00:33:43.495Z,24.22
2016-08-27T00:34:42.057Z,24.17
2016-08-27T00:35:43.392Z,24.16
2016-08-27T00:36:43.768Z,24.17
2016-08-27T00:37:43.314Z,24.12
2016-08-27T00:38:43.263Z,24.05
2016-08-27T00:39:44.044Z,24.17
2016-08-27T00:40:43.386Z,24.16
2016-08-27T00:41:43.146Z,24.2
2016-08-27T00:42:43.092Z,24.13
2016-08-27T00:43:43.065Z,24.13
2016-08-27T00:44:43.011Z,24
2016-08-27T00:45:42.963Z,24.04
2016-08-27T00:46:43.122Z,23.94
2016-08-27T00:47:43.091Z,23.97
2016-08-27T00:48:42.924Z,24.02
2016-08-27T00:49:43.011Z,24.04
2016-08-27T00:50:42.765Z,23.97
2016-08-27T00:51:42.734Z,23.92
2016-08-27T00:52:42.885Z,23.97
2016-08-27T00:53:42.834Z,23.92
2016-08-27T00:54:42.604Z,23.94
2016-08-27T00:55:42.573Z,23.89
2016-08-27T00:56:42.548Z,23.9
2016-08-27T00:57:42.463Z,23.92
2016-08-27T00:58:41.725Z,23.92
2016-08-27T00:59:41.681Z,23.95
2016-08-27T01:00:41.644Z,23.87
2016-08-27T01:01:42.504Z,23.77
2016-08-27T01:02:42.264Z,23.8
2016-08-27T01:03:42.215Z,23.76
2016-08-27T01:04:42.603Z,23.79
2016-08-27T01:05:42.335Z,23.75
2016-08-27T01:06:42.309Z,23.8
2016-08-27T01:07:42.045Z,23.8
2016-08-27T01:08:41.293Z,23.86
2016-08-27T01:09:41.970Z,23.83
2016-08-27T01:10:42.228Z,23.82
2016-08-27T01:11:41.884Z,23.71
2016-08-27T01:12:42.044Z,23.82
2016-08-27T01:13:41.784Z,23.8
2016-08-27T01:14:41.752Z,23.9
2016-08-27T01:15:41.705Z,23.98
2016-08-27T01:16:40.971Z,24.01
2016-08-27T01:17:41.644Z,24.01
2016-08-27T01:18:41.594Z,24.01
2016-08-27T01:19:41.546Z,23.87
2016-08-27T01:20:41.506Z,23.87
2016-08-27T01:21:41.858Z,23.75
2016-08-27T01:22:41.624Z,23.76
2016-08-27T01:23:41.367Z,23.71
2016-08-27T01:24:41.331Z,23.75
2016-08-27T01:25:41.285Z,23.82
2016-08-27T01:26:41.250Z,23.87
2016-08-27T01:27:40.685Z,23.8
2016-08-27T01:28:41.365Z,23.8
2016-08-27T01:29:41.111Z,23.79
2016-08-27T01:30:41.310Z,23.76
2016-08-27T01:31:41.272Z,23.7
2016-08-27T01:32:41.007Z,23.71
2016-08-27T01:33:40.234Z,23.64
2016-08-27T01:34:40.232Z,23.65
2016-08-27T01:35:40.394Z,23.65
2016-08-27T01:36:40.824Z,23.55
2016-08-27T01:37:40.087Z,23.65
2016-08-27T01:38:40.812Z,23.64
2016-08-27T01:39:40.683Z,23.57
2016-08-27T01:40:40.643Z,23.64
2016-08-27T01:41:41.009Z,23.65
2016-08-27T01:42:40.574Z,23.65
2016-08-27T01:43:40.530Z,23.64
2016-08-27T01:44:40.469Z,23.72
2016-08-27T01:45:40.438Z,23.68
2016-08-27T01:46:40.801Z,23.67
2016-08-27T01:47:40.357Z,23.52
2016-08-27T01:48:40.313Z,23.49
2016-08-27T01:49:40.264Z,23.43
2016-08-27T01:50:39.748Z,23.5
2016-08-27T01:51:40.203Z,23.55
2016-08-27T01:52:40.345Z,23.5
2016-08-27T01:53:40.315Z,23.53
2016-08-27T01:54:40.053Z,23.49
2016-08-27T01:55:40.024Z,23.49
2016-08-27T01:56:39.969Z,23.45
2016-08-27T01:57:39.984Z,23.6
2016-08-27T01:58:39.894Z,23.61
2016-08-27T01:59:39.845Z,23.6
2016-08-27T02:00:39.814Z,23.68
2016-08-27T02:01:39.065Z,23.67
2016-08-27T02:02:39.934Z,23.67
2016-08-27T02:03:40.087Z,23.67
2016-08-27T02:04:39.634Z,23.64
2016-08-27T02:05:39.644Z,23.75
2016-08-27T02:06:38.850Z,23.67
2016-08-27T02:07:39.513Z,23.62
2016-08-27T02:08:39.674Z,23.71
2016-08-27T02:09:39.425Z,23.83
2016-08-27T02:10:38.695Z,23.67
2016-08-27T02:11:39.527Z,23.62
2016-08-27T02:12:39.292Z,23.58
2016-08-27T02:13:38.755Z,23.47
2016-08-27T02:14:39.434Z,23.52
2016-08-27T02:15:39.367Z,23.52
2016-08-27T02:16:39.213Z,23.46
2016-08-27T02:17:39.079Z,23.6
2016-08-27T02:18:39.035Z,23.65
2016-08-27T02:19:39.010Z,23.61
2016-08-27T02:20:38.954Z,23.68
2016-08-27T02:21:40.102Z,23.71
2016-08-27T02:22:39.080Z,23.8
2016-08-27T02:23:38.831Z,23.67
2016-08-27T02:24:39.034Z,23.65
2016-08-27T02:25:38.759Z,23.6
2016-08-27T02:26:38.703Z,23.64
2016-08-27T02:27:38.663Z,23.61
2016-08-27T02:28:38.614Z,23.65
2016-08-27T02:29:38.771Z,23.57
2016-08-27T02:30:38.961Z,23.61
2016-08-27T02:31:38.484Z,23.58
2016-08-27T02:32:38.760Z,23.55
2016-08-27T02:33:38.404Z,23.49
2016-08-27T02:34:38.358Z,23.53
2016-08-27T02:35:38.923Z,23.4
2016-08-27T02:36:38.477Z,23.32
2016-08-27T02:37:38.242Z,23.4
2016-08-27T02:38:38.194Z,23.32
2016-08-27T02:39:38.157Z,23.22
2016-08-27T02:40:38.123Z,23.34
2016-08-27T02:41:38.128Z,23.26
2016-08-27T02:42:38.023Z,23.34
2016-08-27T02:43:37.994Z,23.34
2016-08-27T02:44:37.944Z,23.49
2016-08-27T02:45:37.901Z,23.46
2016-08-27T02:46:37.858Z,23.47
2016-08-27T02:47:38.022Z,23.42
2016-08-27T02:48:37.764Z,23.39
2016-08-27T02:49:37.963Z,23.42
2016-08-27T02:50:37.692Z,23.38
2016-08-27T02:51:37.647Z,23.31
2016-08-27T02:52:38.014Z,23.27
2016-08-27T02:53:37.756Z,23.34
2016-08-27T02:54:37.513Z,23.29
2016-08-27T02:55:36.774Z,23.2
2016-08-27T02:56:36.746Z,23.15
2016-08-27T02:57:37.384Z,23.19
2016-08-27T02:58:37.343Z,23.07
2016-08-27T02:59:37.299Z,23.05
2016-08-27T03:00:37.263Z,23.12
2016-08-27T03:01:37.213Z,23.2
2016-08-27T03:02:37.174Z,23.29
2016-08-27T03:03:37.362Z,23.26
2016-08-27T03:04:37.098Z,23.32
2016-08-27T03:05:37.044Z,23.17
2016-08-27T03:06:36.302Z,23.15
2016-08-27T03:07:36.273Z,23.14
2016-08-27T03:08:36.941Z,23.2
2016-08-27T03:09:36.884Z,23.14
2016-08-27T03:10:36.834Z,23.15
2016-08-27T03:11:36.793Z,23.08
2016-08-27T03:12:36.773Z,23.11
2016-08-27T03:13:36.703Z,23.05
2016-08-27T03:14:36.748Z,23.02
2016-08-27T03:15:36.623Z,23.02
2016-08-27T03:16:36.805Z,22.99
2016-08-27T03:17:35.841Z,23.01
2016-08-27T03:18:36.722Z,23.05
2016-08-27T03:19:36.453Z,22.99
2016-08-27T03:20:36.403Z,22.92
2016-08-27T03:21:35.672Z,23.01
2016-08-27T03:22:36.512Z,22.89
2016-08-27T03:23:36.301Z,22.97
2016-08-27T03:24:36.240Z,22.96
2016-08-27T03:25:36.417Z,23.01
2016-08-27T03:26:36.144Z,23.08
2016-08-27T03:27:36.115Z,23.07
2016-08-27T03:28:36.075Z,23.09
2016-08-27T03:29:36.092Z,23.05
2016-08-27T03:30:35.981Z,22.99
2016-08-27T03:31:35.928Z,23.05
2016-08-27T03:32:36.095Z,23.07
2016-08-27T03:33:35.853Z,23.04
2016-08-27T03:34:36.215Z,22.92
2016-08-27T03:35:35.769Z,22.94
2016-08-27T03:36:35.731Z,22.86
2016-08-27T03:37:35.705Z,22.84
2016-08-27T03:38:35.644Z,22.78
2016-08-27T03:39:35.593Z,22.77
2016-08-27T03:40:35.763Z,22.77
2016-08-27T03:41:35.712Z,22.75
2016-08-27T03:42:35.682Z,22.78
2016-08-27T03:43:35.633Z,22.72
2016-08-27T03:44:35.373Z,22.72
2016-08-27T03:45:35.355Z,22.72
2016-08-27T03:46:34.804Z,22.65
2016-08-27T03:47:35.262Z,22.62
2016-08-27T03:48:35.275Z,22.6
2016-08-27T03:49:34.487Z,22.59
2016-08-27T03:50:35.333Z,22.6
2016-08-27T03:51:35.294Z,22.57
2016-08-27T03:52:35.031Z,22.59
2016-08-27T03:53:35.003Z,22.75
2016-08-27T03:54:34.983Z,22.77
2016-08-27T03:55:34.912Z,22.82
2016-08-27T03:56:35.081Z,22.74
2016-08-27T03:57:35.091Z,22.72
2016-08-27T03:58:34.989Z,22.68
2016-08-27T03:59:34.822Z,22.6
2016-08-27T04:00:34.703Z,22.6
2016-08-27T04:01:34.685Z,22.59
2016-08-27T04:02:34.613Z,22.57
2016-08-27T04:03:34.572Z,22.64
2016-08-27T04:04:34.526Z,22.54
2016-08-27T04:05:34.683Z,22.59
2016-08-27T04:06:34.449Z,22.56
2016-08-27T04:07:34.404Z,22.46
2016-08-27T04:08:34.363Z,22.47
2016-08-27T04:09:34.311Z,22.44
2016-08-27T04:10:34.273Z,22.25
2016-08-27T04:11:34.241Z,22.28
2016-08-27T04:12:34.191Z,22.29
2016-08-27T04:13:34.152Z,22.29
2016-08-27T04:14:34.124Z,22.23
2016-08-27T04:15:34.136Z,22.29
2016-08-27T04:16:34.962Z,22.34
2016-08-27T04:17:34.020Z,22.46
2016-08-27T04:18:33.223Z,22.52
2016-08-27T04:19:33.183Z,22.5
2016-08-27T04:20:33.852Z,22.62
2016-08-27T04:21:33.095Z,22.6
2016-08-27T04:22:33.749Z,22.62
2016-08-27T04:23:33.013Z,22.47
2016-08-27T04:24:33.662Z,22.34
2016-08-27T04:25:33.912Z,22.25
2016-08-27T04:26:33.093Z,22.2
2016-08-27T04:27:33.742Z,22.16
2016-08-27T04:28:33.492Z,22.14
2016-08-27T04:29:33.447Z,22.17
2016-08-27T04:30:33.417Z,22.16
2016-08-27T04:31:33.571Z,22.1
2016-08-27T04:32:33.730Z,22.2
2016-08-27T04:33:33.283Z,22.19
2016-08-27T04:34:32.550Z,22.25
2016-08-27T04:35:32.720Z,22.34
2016-08-27T04:36:33.161Z,22.34
2016-08-27T04:37:33.121Z,22.34
2016-08-27T04:38:33.073Z,22.29
2016-08-27T04:39:33.213Z,22.22
2016-08-27T04:40:32.283Z,22.17
2016-08-27T04:41:32.922Z,22.07
2016-08-27T04:42:33.090Z,22.12
2016-08-27T04:43:32.152Z,21.97
2016-08-27T04:44:32.801Z,21.99
2016-08-27T04:45:32.762Z,21.99
2016-08-27T04:46:32.712Z,22.09
2016-08-27T04:47:32.872Z,22.12
2016-08-27T04:48:31.929Z,22.16
2016-08-27T04:49:32.601Z,22.2
2016-08-27T04:50:31.864Z,22.29
2016-08-27T04:51:32.505Z,22.23
2016-08-27T04:52:32.463Z,22.28
2016-08-27T04:53:32.413Z,22.34
2016-08-27T04:54:32.373Z,22.14
2016-08-27T04:55:31.633Z,22.09
2016-08-27T04:56:31.590Z,22.13
2016-08-27T04:57:32.241Z,22.17
2016-08-27T04:58:32.209Z,22.22
2016-08-27T04:59:31.453Z,22.22
2016-08-27T05:00:32.313Z,22.27
2016-08-27T05:01:32.274Z,22.27
2016-08-27T05:02:32.254Z,22.22
2016-08-27T05:03:32.190Z,22.32
2016-08-27T05:04:32.133Z,22.25
2016-08-27T05:05:32.493Z,22.13
2016-08-27T05:06:32.064Z,22.04
2016-08-27T05:07:32.005Z,22.16
2016-08-27T05:08:32.132Z,22.25
2016-08-27T05:09:31.933Z,22.31
2016-08-27T05:10:31.697Z,22.35
2016-08-27T05:11:31.644Z,22.32
2016-08-27T05:12:31.591Z,22.34
2016-08-27T05:13:31.542Z,22.19
2016-08-27T05:14:31.914Z,22.27
2016-08-27T05:15:31.464Z,22.17
2016-08-27T05:16:31.439Z,22.19
2016-08-27T05:17:31.367Z,22.25
2016-08-27T05:18:31.345Z,22.29
2016-08-27T05:19:31.494Z,22.31
2016-08-27T05:20:30.568Z,22.35
2016-08-27T05:21:31.274Z,22.16
2016-08-27T05:22:31.172Z,22.17
2016-08-27T05:23:31.332Z,22.13
2016-08-27T05:24:31.083Z,22.17
2016-08-27T05:25:31.235Z,22.19
2016-08-27T05:26:30.993Z,22.17
2016-08-27T05:27:30.985Z,22.2
2016-08-27T05:28:31.364Z,22.25
2016-08-27T05:29:30.378Z,22.2
2016-08-27T05:30:30.823Z,22.27
2016-08-27T05:31:30.764Z,22.31
2016-08-27T05:32:30.733Z,22.34
2016-08-27T05:33:29.987Z,22.34
2016-08-27T05:34:30.639Z,22.35
2016-08-27T05:35:30.593Z,22.31
2016-08-27T05:36:30.772Z,22.35
2016-08-27T05:37:30.523Z,22.35
2016-08-27T05:38:30.462Z,22.39
2016-08-27T05:39:30.424Z,22.35
2016-08-27T05:40:30.383Z,22.31
2016-08-27T05:41:29.844Z,22.31
2016-08-27T05:42:30.512Z,22.31
2016-08-27T05:43:30.454Z,22.38
2016-08-27T05:44:30.211Z,22.35
2016-08-27T05:45:30.173Z,22.5
2016-08-27T05:46:30.143Z,22.41
2016-08-27T05:47:30.083Z,22.41
2016-08-27T05:48:30.044Z,22.44
2016-08-27T05:49:30.393Z,22.34
2016-08-27T05:50:30.752Z,22.35
2016-08-27T05:51:29.423Z,22.16
2016-08-27T05:52:29.360Z,22.13
2016-08-27T05:53:30.044Z,22.22
2016-08-27T05:54:29.213Z,22.25
2016-08-27T05:55:29.772Z,22.19
2016-08-27T05:56:29.732Z,22.22
2016-08-27T05:57:29.661Z,22.29
2016-08-27T05:58:29.620Z,22.27
2016-08-27T05:59:28.870Z,22.25
2016-08-27T06:00:29.936Z,22.34
2016-08-27T06:01:29.682Z,22.49
2016-08-27T06:02:29.633Z,22.52
2016-08-27T06:03:29.592Z,22.41
2016-08-27T06:04:29.375Z,22.44
2016-08-27T06:05:29.408Z,22.43
2016-08-27T06:06:29.351Z,22.47
2016-08-27T06:07:29.304Z,22.5
2016-08-27T06:08:29.436Z,22.47
2016-08-27T06:09:29.337Z,22.52
2016-08-27T06:10:28.591Z,22.49
2016-08-27T06:11:29.049Z,22.57
2016-08-27T06:12:29.221Z,22.53
2016-08-27T06:13:28.972Z,22.54
2016-08-27T06:14:28.913Z,22.56
2016-08-27T06:15:28.889Z,22.52
2016-08-27T06:16:28.844Z,22.49
2016-08-27T06:17:28.795Z,22.53
2016-08-27T06:18:28.745Z,22.5
2016-08-27T06:19:28.707Z,22.43
2016-08-27T06:20:28.874Z,22.47
2016-08-27T06:21:28.646Z,22.44
2016-08-27T06:22:28.073Z,22.52
2016-08-27T06:23:28.534Z,22.62
2016-08-27T06:24:28.493Z,22.62
2016-08-27T06:25:28.544Z,22.77
2016-08-27T06:26:28.393Z,22.72
2016-08-27T06:27:28.758Z,22.62
2016-08-27T06:28:27.613Z,22.6
2016-08-27T06:29:28.485Z,22.64
2016-08-27T06:30:27.541Z,22.71
2016-08-27T06:31:28.183Z,22.75
2016-08-27T06:32:28.744Z,22.72
2016-08-27T06:33:28.103Z,22.71
2016-08-27T06:34:28.063Z,22.72
2016-08-27T06:35:28.211Z,22.67
2016-08-27T06:36:27.285Z,22.74
2016-08-27T06:37:27.934Z,22.77
2016-08-27T06:38:27.896Z,22.77
2016-08-27T06:39:27.840Z,22.84
2016-08-27T06:40:27.874Z,22.8
2016-08-27T06:41:27.767Z,22.86
2016-08-27T06:42:27.784Z,22.89
2016-08-27T06:43:27.677Z,22.89
2016-08-27T06:44:27.634Z,22.92
2016-08-27T06:45:27.779Z,22.86
2016-08-27T06:46:27.774Z,22.89
2016-08-27T06:47:27.494Z,22.94
2016-08-27T06:48:27.704Z,22.97
2016-08-27T06:49:27.635Z,22.99
2016-08-27T06:50:26.908Z,22.99
2016-08-27T06:51:27.399Z,23.02
2016-08-27T06:52:27.308Z,23.07
2016-08-27T06:53:27.245Z,23.17
2016-08-27T06:54:27.204Z,23.12
2016-08-27T06:55:27.165Z,23.11
2016-08-27T06:56:27.112Z,23.05
2016-08-27T06:57:27.079Z,23.07
2016-08-27T06:58:27.030Z,23.07
2016-08-27T06:59:27.233Z,23.05
2016-08-27T07:00:26.255Z,23.01
2016-08-27T07:01:26.207Z,23.01
2016-08-27T07:02:27.066Z,23.15
2016-08-27T07:03:26.837Z,23.22
2016-08-27T07:04:26.787Z,23.29
2016-08-27T07:05:27.135Z,23.38
2016-08-27T07:06:26.894Z,23.34
2016-08-27T07:07:26.714Z,23.42
2016-08-27T07:08:25.913Z,23.42
2016-08-27T07:09:25.962Z,23.46
2016-08-27T07:10:26.729Z,23.55
2016-08-27T07:11:26.882Z,23.55
2016-08-27T07:12:27.362Z,23.6
2016-08-27T07:13:25.692Z,23.58
2016-08-27T07:14:27.195Z,23.61
2016-08-27T07:15:26.327Z,23.61
2016-08-27T07:16:26.282Z,23.7
2016-08-27T07:17:26.242Z,23.68
2016-08-27T07:18:25.690Z,23.71
2016-08-27T07:19:25.442Z,23.77
2016-08-27T07:20:26.522Z,23.8
2016-08-27T07:21:26.073Z,23.85
2016-08-27T07:22:25.520Z,23.9
2016-08-27T07:23:26.193Z,23.87
2016-08-27T07:24:25.942Z,23.9
2016-08-27T07:25:26.143Z,23.97
2016-08-27T07:26:25.852Z,23.97
2016-08-27T07:27:25.821Z,23.92
2016-08-27T07:28:25.766Z,23.94
2016-08-27T07:29:25.715Z,24.01
2016-08-27T07:30:25.671Z,24.05
2016-08-27T07:31:25.841Z,24.1
2016-08-27T07:32:25.804Z,24.19
2016-08-27T07:33:25.737Z,24.22
2016-08-27T07:34:25.001Z,24.22
2016-08-27T07:35:25.463Z,24.13
2016-08-27T07:36:25.419Z,24.2
2016-08-27T07:37:25.400Z,24.22
2016-08-27T07:38:25.560Z,24.24
2016-08-27T07:39:25.306Z,24.31
2016-08-27T07:40:24.560Z,24.38
2016-08-27T07:41:25.457Z,24.34
2016-08-27T07:42:24.691Z,24.42
2016-08-27T07:43:24.446Z,24.45
2016-08-27T07:44:25.100Z,24.44
2016-08-27T07:45:23.647Z,24.45
2016-08-27T07:46:25.004Z,24.53
2016-08-27T07:47:24.989Z,24.57
2016-08-27T07:48:25.120Z,24.6
2016-08-27T07:49:24.880Z,24.64
2016-08-27T07:50:24.841Z,24.67
2016-08-27T07:51:25.038Z,24.61
2016-08-27T07:52:24.784Z,24.63
2016-08-27T07:53:24.719Z,24.61
2016-08-27T07:54:24.860Z,24.6
2016-08-27T07:55:24.871Z,24.57
2016-08-27T07:56:24.608Z,24.68
2016-08-27T07:57:24.550Z,24.6
2016-08-27T07:58:24.961Z,24.68
2016-08-27T07:59:24.460Z,24.73
2016-08-27T08:00:24.428Z,24.77
2016-08-27T08:01:24.369Z,24.76
2016-08-27T08:02:24.270Z,24.79
2016-08-27T08:03:24.291Z,24.91
2016-08-27T08:04:24.259Z,24.9
2016-08-27T08:05:24.440Z,24.94
2016-08-27T08:06:24.408Z,24.95
2016-08-27T08:07:23.627Z,25.01
2016-08-27T08:08:24.169Z,25.05
2016-08-27T08:09:24.039Z,25.15
2016-08-27T08:10:24.427Z,25.15
2016-08-27T08:11:23.996Z,25.13
2016-08-27T08:12:24.139Z,25.15
2016-08-27T08:13:23.889Z,25.19
2016-08-27T08:14:23.134Z,25.24
2016-08-27T08:15:23.807Z,25.27
2016-08-27T08:16:23.747Z,25.19
2016-08-27T08:17:23.715Z,25.19
2016-08-27T08:18:24.117Z,25.2
2016-08-27T08:19:23.633Z,25.16
2016-08-27T08:20:22.885Z,25.25
2016-08-27T08:21:22.854Z,25.25
2016-08-27T08:22:23.013Z,25.28
2016-08-27T08:23:23.474Z,25.28
2016-08-27T08:24:23.414Z,25.28
2016-08-27T08:25:23.582Z,25.32
2016-08-27T08:26:23.351Z,25.35
2016-08-27T08:27:23.295Z,25.38
2016-08-27T08:28:23.256Z,25.37
2016-08-27T08:29:23.216Z,25.43
2016-08-27T08:30:23.450Z,25.43
2016-08-27T08:31:23.151Z,25.43
2016-08-27T08:32:23.091Z,25.42
2016-08-27T08:33:22.366Z,25.44
2016-08-27T08:34:23.015Z,25.62
2016-08-27T08:35:23.256Z,25.71
2016-08-27T08:36:22.237Z,25.69
2016-08-27T08:37:23.213Z,25.65
2016-08-27T08:38:23.475Z,25.62
2016-08-27T08:39:22.821Z,25.64
2016-08-27T08:40:22.975Z,25.67
2016-08-27T08:41:22.767Z,25.75
2016-08-27T08:42:22.734Z,25.72
2016-08-27T08:43:23.069Z,25.75
2016-08-27T08:44:22.611Z,25.82
2016-08-27T08:45:22.580Z,25.79
2016-08-27T08:46:22.525Z,25.8
2016-08-27T08:47:22.763Z,25.77
2016-08-27T08:48:21.953Z,25.87
2016-08-27T08:49:22.610Z,25.91
2016-08-27T08:50:20.969Z,25.91
2016-08-27T08:51:22.344Z,26.04
2016-08-27T08:52:21.641Z,26.06
2016-08-27T08:53:22.253Z,26.01
2016-08-27T08:54:22.602Z,26.09
2016-08-27T08:55:21.472Z,26.04
2016-08-27T08:56:22.412Z,26.22
2016-08-27T08:57:22.702Z,26.22
2016-08-27T08:58:21.562Z,26.2
2016-08-27T08:59:21.347Z,26.21
2016-08-27T09:00:21.291Z,26.27
2016-08-27T09:01:21.984Z,26.2
2016-08-27T09:02:21.193Z,26.2
2016-08-27T09:03:21.185Z,26.17
2016-08-27T09:04:21.791Z,26.22
2016-08-27T09:05:21.260Z,26.25
2016-08-27T09:06:21.727Z,26.28
2016-08-27T09:07:20.984Z,26.35
2016-08-27T09:08:21.637Z,26.39
2016-08-27T09:09:21.295Z,26.32
2016-08-27T09:10:20.843Z,26.36
2016-08-27T09:11:21.614Z,26.46
2016-08-27T09:12:21.457Z,26.49
2016-08-27T09:13:21.423Z,26.47
2016-08-27T09:14:20.198Z,26.42
2016-08-27T09:15:21.348Z,26.42
2016-08-27T09:16:21.704Z,26.5
2016-08-27T09:17:20.558Z,26.54
2016-08-27T09:18:20.546Z,26.61
2016-08-27T09:19:21.395Z,26.52
2016-08-27T09:20:21.138Z,26.59
2016-08-27T09:21:20.396Z,26.62
2016-08-27T09:22:21.058Z,26.57
2016-08-27T09:23:21.424Z,26.61
2016-08-27T09:24:20.991Z,26.73
2016-08-27T09:25:21.414Z,26.65
2016-08-27T09:26:20.896Z,26.79
2016-08-27T09:27:20.862Z,26.86
2016-08-27T09:28:21.013Z,26.89
2016-08-27T09:29:20.770Z,26.99
2016-08-27T09:30:20.977Z,27.09
2016-08-27T09:31:20.223Z,27.1
2016-08-27T09:32:20.160Z,27.1
2016-08-27T09:33:20.623Z,27.14
2016-08-27T09:34:20.591Z,27.19
2016-08-27T09:35:21.037Z,27.24
2016-08-27T09:36:20.023Z,27.21
2016-08-27T09:37:20.864Z,27.2
2016-08-27T09:38:20.450Z,27.21
2016-08-27T09:39:19.690Z,27.19
2016-08-27T09:40:19.675Z,27.35
2016-08-27T09:41:19.816Z,27.38
2016-08-27T09:42:20.258Z,27.33
2016-08-27T09:43:20.215Z,27.41
2016-08-27T09:44:19.693Z,27.48
2016-08-27T09:45:19.648Z,27.47
2016-08-27T09:46:19.396Z,27.5
2016-08-27T09:47:20.060Z,27.58
2016-08-27T09:48:20.015Z,27.58
2016-08-27T09:49:20.366Z,27.53
2016-08-27T09:50:19.258Z,27.51
2016-08-27T09:51:20.098Z,27.57
2016-08-27T09:52:19.869Z,27.64
2016-08-27T09:53:19.117Z,27.5
2016-08-27T09:54:19.793Z,27.64
2016-08-27T09:55:19.091Z,27.61
2016-08-27T09:56:19.710Z,27.51
2016-08-27T09:57:19.656Z,27.62
2016-08-27T09:58:19.637Z,27.58
2016-08-27T09:59:19.611Z,27.57
2016-08-27T10:00:19.529Z,27.5
2016-08-27T10:01:19.492Z,27.58
2016-08-27T10:02:19.681Z,27.54
2016-08-27T10:03:19.421Z,27.48
2016-08-27T10:04:19.378Z,27.48
2016-08-27T10:05:19.330Z,27.41
2016-08-27T10:06:19.280Z,27.47
2016-08-27T10:07:19.251Z,27.48
2016-08-27T10:08:19.620Z,27.54
2016-08-27T10:09:19.377Z,27.51
2016-08-27T10:10:19.157Z,27.51
2016-08-27T10:11:19.498Z,27.64
2016-08-27T10:12:19.259Z,27.67
2016-08-27T10:13:19.039Z,27.67
2016-08-27T10:14:19.190Z,27.64
2016-08-27T10:15:19.337Z,27.62
2016-08-27T10:16:18.924Z,27.7
2016-08-27T10:17:18.157Z,27.69
2016-08-27T10:18:18.817Z,27.74
2016-08-27T10:19:18.778Z,27.79
2016-08-27T10:20:18.750Z,27.86
2016-08-27T10:21:18.696Z,27.86
2016-08-27T10:22:18.660Z,27.74
2016-08-27T10:23:18.616Z,27.84
2016-08-27T10:24:18.576Z,27.82
2016-08-27T10:25:18.525Z,27.85
2016-08-27T10:26:18.505Z,27.96
2016-08-27T10:27:17.964Z,28.03
2016-08-27T10:28:18.626Z,28.04
2016-08-27T10:29:18.377Z,28.03
2016-08-27T10:30:18.343Z,28.09
2016-08-27T10:31:18.306Z,28.01
2016-08-27T10:32:18.261Z,28.03
2016-08-27T10:33:18.425Z,27.99
2016-08-27T10:34:17.473Z,27.96
2016-08-27T10:35:18.344Z,27.92
2016-08-27T10:36:18.091Z,28.01
2016-08-27T10:37:18.062Z,28.06
2016-08-27T10:38:18.025Z,28.01
2016-08-27T10:39:18.006Z,28.1
2016-08-27T10:40:17.250Z,28.1
2016-08-27T10:41:17.900Z,28.21
2016-08-27T10:42:17.863Z,28.19
2016-08-27T10:43:17.133Z,28.32
2016-08-27T10:44:17.791Z,28.36
2016-08-27T10:45:17.956Z,28.51
2016-08-27T10:46:17.710Z,28.44
2016-08-27T10:47:17.015Z,28.48
2016-08-27T10:48:17.619Z,28.5
2016-08-27T10:49:17.794Z,28.63
2016-08-27T10:50:17.550Z,28.58
2016-08-27T10:51:17.546Z,28.75
2016-08-27T10:52:17.677Z,28.73
2016-08-27T10:53:17.629Z,28.78
2016-08-27T10:54:17.390Z,28.72
2016-08-27T10:55:17.339Z,28.85
2016-08-27T10:56:17.318Z,28.84
2016-08-27T10:57:17.273Z,28.96
2016-08-27T10:58:17.257Z,28.87
2016-08-27T10:59:17.217Z,29.03
2016-08-27T11:00:17.358Z,29.01
2016-08-27T11:01:17.116Z,29.03
2016-08-27T11:02:17.083Z,28.97
2016-08-27T11:03:17.075Z,29.11
2016-08-27T11:04:17.015Z,29.16
2016-08-27T11:05:16.976Z,29.16
2016-08-27T11:06:16.935Z,29.16
2016-08-27T11:07:16.885Z,29.25
2016-08-27T11:08:16.875Z,29.35
2016-08-27T11:09:16.997Z,29.38
2016-08-27T11:10:16.825Z,29.4
2016-08-27T11:11:16.723Z,29.45
2016-08-27T11:12:16.674Z,29.41
2016-08-27T11:13:16.623Z,29.31
2016-08-27T11:14:16.612Z,29.29
2016-08-27T11:15:16.572Z,29.33
2016-08-27T11:16:16.525Z,29.33
2016-08-27T11:17:15.792Z,29.38
2016-08-27T11:18:16.651Z,29.5
2016-08-27T11:19:16.418Z,29.44
2016-08-27T11:20:15.693Z,29.49
2016-08-27T11:21:16.332Z,29.5
2016-08-27T11:22:16.352Z,29.53
2016-08-27T11:23:16.252Z,29.71
2016-08-27T11:24:16.421Z,29.7
2016-08-27T11:25:16.170Z,29.74
2016-08-27T11:26:16.340Z,29.87
2016-08-27T11:27:16.090Z,29.9
2016-08-27T11:28:16.271Z,30.07
2016-08-27T11:29:16.432Z,30.05
2016-08-27T11:30:16.399Z,30
2016-08-27T11:31:15.989Z,30.09
2016-08-27T11:32:15.909Z,30.12
2016-08-27T11:33:16.060Z,30.16
2016-08-27T11:34:15.809Z,30.16
2016-08-27T11:35:15.797Z,30.15
2016-08-27T11:36:15.748Z,30.14
2016-08-27T11:37:15.713Z,30.19
2016-08-27T11:38:15.678Z,30.26
2016-08-27T11:39:15.628Z,30.24
2016-08-27T11:40:15.086Z,30.3
2016-08-27T11:41:15.564Z,30.21
2016-08-27T11:42:15.707Z,30.34
2016-08-27T11:43:15.476Z,30.4
2016-08-27T11:44:15.636Z,30.56
2016-08-27T11:45:14.895Z,30.59
2016-08-27T11:46:15.576Z,30.54
2016-08-27T11:47:15.333Z,30.57
2016-08-27T11:48:15.273Z,30.64
2016-08-27T11:49:15.452Z,30.67
2016-08-27T11:50:15.194Z,30.67
2016-08-27T11:51:15.773Z,30.68
2016-08-27T11:52:15.314Z,30.78
2016-08-27T11:53:15.098Z,30.91
2016-08-27T11:54:15.253Z,30.96
2016-08-27T11:55:15.214Z,31.11
2016-08-27T11:56:15.191Z,31.11
2016-08-27T11:57:14.934Z,31.11
2016-08-27T11:58:14.892Z,31.11
2016-08-27T11:59:14.171Z,31.11
2016-08-27T12:00:14.840Z,31.12
2016-08-27T12:01:14.780Z,31.31
2016-08-27T12:02:14.743Z,31.28
2016-08-27T12:03:14.916Z,31.23
2016-08-27T12:04:14.173Z,31.3
2016-08-27T12:05:14.631Z,31.26
2016-08-27T12:06:14.590Z,31.36
2016-08-27T12:07:14.749Z,31.35
2016-08-27T12:08:14.520Z,31.39
2016-08-27T12:09:14.470Z,31.42
2016-08-27T12:10:14.426Z,31.33
2016-08-27T12:11:14.451Z,31.39
2016-08-27T12:12:14.398Z,31.43
2016-08-27T12:13:14.317Z,31.35
2016-08-27T12:14:14.330Z,31.35
2016-08-27T12:15:14.448Z,31.39
2016-08-27T12:16:14.616Z,31.39
2016-08-27T12:17:14.179Z,31.48
2016-08-27T12:18:14.127Z,31.55
2016-08-27T12:19:14.102Z,31.64
2016-08-27T12:20:14.267Z,31.58
2016-08-27T12:21:14.016Z,31.62
2016-08-27T12:22:13.985Z,31.67
2016-08-27T12:23:14.155Z,31.8
2016-08-27T12:24:13.915Z,31.84
2016-08-27T12:25:14.076Z,31.82
2016-08-27T12:26:13.816Z,31.93
2016-08-27T12:27:13.782Z,31.85
2016-08-27T12:28:13.777Z,31.91
2016-08-27T12:29:13.710Z,31.85
2016-08-27T12:30:14.081Z,31.88
2016-08-27T12:31:13.645Z,32.02
2016-08-27T12:32:14.002Z,32.02
2016-08-27T12:33:13.581Z,32.15
2016-08-27T12:34:13.515Z,32.17
2016-08-27T12:35:13.691Z,32.17
2016-08-27T12:36:13.456Z,32.15
2016-08-27T12:37:13.411Z,32.29
2016-08-27T12:38:13.382Z,32.2
2016-08-27T12:39:13.349Z,32.13
2016-08-27T12:40:13.315Z,32.15
2016-08-27T12:41:13.250Z,32.15
2016-08-27T12:42:13.422Z,32.21
2016-08-27T12:43:13.224Z,32.4
2016-08-27T12:44:13.154Z,32.48
2016-08-27T12:45:13.114Z,32.49
2016-08-27T12:46:13.086Z,32.49
2016-08-27T12:47:13.432Z,32.43
2016-08-27T12:48:12.994Z,32.49
2016-08-27T12:49:13.190Z,32.4
2016-08-27T12:50:12.909Z,32.27
2016-08-27T12:51:12.873Z,32.25
2016-08-27T12:52:12.838Z,32.17
2016-08-27T12:53:12.831Z,32.13
2016-08-27T12:54:12.775Z,32.02
2016-08-27T12:55:12.734Z,31.87